createdAt,value
2016-12-31T00:00:09.911Z,16.52
2016-12-31T00:00:50.424Z,16.33
2016-12-31T00:01:30.915Z,16.33
2016-12-31T00:02:11.417Z,16.52
2016-12-31T00:02:51.910Z,16.52
2016-12-31T00:03:32.408Z,16.33
2016-12-31T00:04:12.908Z,16.52
2016-12-31T00:04:53.404Z,16.42
2016-12-31T00:05:33.900Z,16.33
2016-12-31T00:06:14.618Z,16.52
2016-12-31T00:06:55.111Z,16.33
2016-12-31T00:07:35.621Z,16.52
2016-12-31T00:08:16.107Z,16.33
2016-12-31T00:08:56.606Z,16.52
2016-12-31T00:09:37.090Z,16.52
2016-12-31T00:10:17.589Z,16.33
2016-12-31T00:10:58.073Z,16.52
2016-12-31T00:11:38.558Z,16.52
2016-12-31T00:12:19.052Z,16.42
2016-12-31T00:12:59.547Z,16.52
2016-12-31T00:13:40.033Z,16.33
2016-12-31T00:14:20.524Z,16.81
2016-12-31T00:15:01.010Z,16.52
2016-12-31T00:15:41.492Z,16.52
2016-12-31T00:16:21.977Z,16.33
2016-12-31T00:17:02.466Z,16.33
2016-12-31T00:17:42.959Z,16.52
2016-12-31T00:18:23.451Z,16.33
2016-12-31T00:19:03.941Z,16.33
2016-12-31T00:19:44.446Z,16.33
2016-12-31T00:20:24.940Z,16.52
2016-12-31T00:21:05.436Z,16.62
2016-12-31T00:21:45.925Z,16.13
2016-12-31T00:22:26.479Z,16.52
2016-12-31T00:23:06.965Z,16.52
2016-12-31T00:23:47.446Z,16.52
2016-12-31T00:24:27.939Z,16.62
2016-12-31T00:25:08.439Z,16.62
2016-12-31T00:25:48.955Z,16.52
2016-12-31T00:26:29.443Z,16.72
2016-12-31T00:27:09.936Z,16.62
2016-12-31T00:27:50.417Z,16.62
2016-12-31T00:28:30.917Z,16.52
2016-12-31T00:29:11.412Z,16.62
2016-12-31T00:29:51.889Z,16.52
2016-12-31T00:30:32.377Z,16.52
2016-12-31T00:31:12.873Z,16.72
2016-12-31T00:31:53.362Z,16.62
2016-12-31T00:32:33.853Z,16.81
2016-12-31T00:33:14.339Z,16.72
2016-12-31T00:33:54.840Z,16.42
2016-12-31T00:34:35.332Z,16.71
2016-12-31T00:35:15.825Z,16.62
2016-12-31T00:35:56.309Z,16.52
2016-12-31T00:36:37.083Z,16.52
2016-12-31T00:37:17.579Z,16.62
2016-12-31T00:37:58.061Z,16.72
2016-12-31T00:38:38.550Z,16.52
2016-12-31T00:39:19.044Z,16.72
2016-12-31T00:39:59.531Z,16.62
2016-12-31T00:40:40.024Z,16.8
2016-12-31T00:41:20.516Z,16.81
2016-12-31T00:42:00.991Z,16.81
2016-12-31T00:42:41.485Z,16.81
2016-12-31T00:43:21.974Z,16.72
2016-12-31T00:44:02.470Z,16.52
2016-12-31T00:44:42.952Z,16.52
2016-12-31T00:45:23.444Z,16.72
2016-12-31T00:46:03.941Z,16.61
2016-12-31T00:46:44.424Z,16.81
2016-12-31T00:47:24.920Z,16.62
2016-12-31T00:48:05.417Z,16.81
2016-12-31T00:48:45.944Z,16.52
2016-12-31T00:49:26.423Z,16.52
2016-12-31T00:50:06.916Z,16.52
2016-12-31T00:50:47.534Z,16.62
2016-12-31T00:51:28.028Z,16.62
2016-12-31T00:52:08.516Z,16.71
2016-12-31T00:52:49.032Z,16.52
2016-12-31T00:53:29.519Z,16.52
2016-12-31T00:54:10.029Z,16.52
2016-12-31T00:54:50.520Z,16.62
2016-12-31T00:55:31.008Z,16.52
2016-12-31T00:56:11.491Z,16.52
2016-12-31T00:56:51.983Z,16.72
2016-12-31T00:57:32.471Z,16.71
2016-12-31T00:58:12.960Z,16.62
2016-12-31T00:58:53.474Z,16.62
2016-12-31T00:59:33.962Z,16.52
2016-12-31T01:00:14.468Z,16.52
2016-12-31T01:00:54.956Z,16.52
2016-12-31T01:01:35.455Z,16.52
2016-12-31T01:02:15.950Z,16.52
2016-12-31T01:02:56.437Z,16.52
2016-12-31T01:03:36.925Z,16.62
2016-12-31T01:04:17.412Z,16.62
2016-12-31T01:04:57.922Z,16.52
2016-12-31T01:05:38.405Z,16.62
2016-12-31T01:06:18.917Z,16.52
2016-12-31T01:06:59.500Z,16.52
2016-12-31T01:07:39.971Z,16.52
2016-12-31T01:08:20.462Z,16.52
2016-12-31T01:09:00.955Z,16.52
2016-12-31T01:09:41.449Z,16.52
2016-12-31T01:10:21.936Z,16.81
2016-12-31T01:11:02.430Z,16.52
2016-12-31T01:11:42.907Z,16.52
2016-12-31T01:12:23.397Z,16.52
2016-12-31T01:13:03.899Z,16.52
2016-12-31T01:13:44.393Z,16.42
2016-12-31T01:14:24.910Z,16.52
2016-12-31T01:15:05.397Z,16.52
2016-12-31T01:15:45.887Z,16.52
2016-12-31T01:16:26.369Z,16.62
2016-12-31T01:17:06.851Z,16.52
2016-12-31T01:17:47.351Z,16.72
2016-12-31T01:18:27.842Z,16.62
2016-12-31T01:19:08.349Z,16.81
2016-12-31T01:19:48.839Z,16.72
2016-12-31T01:20:29.339Z,16.62
2016-12-31T01:21:09.836Z,16.72
2016-12-31T01:21:50.321Z,16.62
2016-12-31T01:22:30.810Z,16.61
2016-12-31T01:23:11.308Z,16.81
2016-12-31T01:23:51.797Z,16.81
2016-12-31T01:24:32.286Z,16.71
2016-12-31T01:25:12.785Z,16.72
2016-12-31T01:25:53.275Z,16.81
2016-12-31T01:26:33.765Z,16.81
2016-12-31T01:27:14.255Z,16.72
2016-12-31T01:27:54.747Z,16.81
2016-12-31T01:28:35.240Z,16.81
2016-12-31T01:29:15.729Z,16.81
2016-12-31T01:29:56.225Z,16.8
2016-12-31T01:30:36.707Z,16.81
2016-12-31T01:31:17.187Z,16.9
2016-12-31T01:31:57.686Z,16.81
2016-12-31T01:32:38.175Z,16.81
2016-12-31T01:33:18.668Z,16.72
2016-12-31T01:33:59.173Z,16.62
2016-12-31T01:34:39.683Z,16.71
2016-12-31T01:35:20.172Z,16.8
2016-12-31T01:36:00.688Z,16.72
2016-12-31T01:36:41.175Z,16.81
2016-12-31T01:37:21.679Z,16.72
2016-12-31T01:38:02.170Z,16.72
2016-12-31T01:38:42.668Z,16.71
2016-12-31T01:39:23.159Z,16.81
2016-12-31T01:40:03.652Z,16.81
2016-12-31T01:40:44.145Z,16.8
2016-12-31T01:41:24.629Z,16.81
2016-12-31T01:42:05.124Z,16.81
2016-12-31T01:42:45.616Z,16.61
2016-12-31T01:43:26.133Z,16.71
2016-12-31T01:44:06.619Z,16.62
2016-12-31T01:44:47.122Z,16.72
2016-12-31T01:45:27.612Z,16.62
2016-12-31T01:46:08.107Z,16.8
2016-12-31T01:46:48.588Z,16.81
2016-12-31T01:47:29.080Z,16.81
2016-12-31T01:48:09.588Z,16.81
2016-12-31T01:48:50.069Z,16.81
2016-12-31T01:49:30.568Z,16.8
2016-12-31T01:50:11.058Z,16.71
2016-12-31T01:50:51.550Z,16.8
2016-12-31T01:51:32.045Z,16.72
2016-12-31T01:52:12.528Z,16.72
2016-12-31T01:52:53.154Z,16.62
2016-12-31T01:53:33.630Z,16.62
2016-12-31T01:54:14.134Z,16.71
2016-12-31T01:54:54.614Z,16.81
2016-12-31T01:55:35.113Z,16.61
2016-12-31T01:56:15.601Z,16.72
2016-12-31T01:56:56.113Z,16.72
2016-12-31T01:57:36.604Z,16.62
2016-12-31T01:58:17.095Z,16.71
2016-12-31T01:58:57.577Z,16.62
2016-12-31T01:59:38.078Z,16.91
2016-12-31T02:00:18.562Z,16.62
2016-12-31T02:00:59.049Z,16.91
2016-12-31T02:01:39.558Z,16.91
2016-12-31T02:02:20.046Z,16.9
2016-12-31T02:03:00.548Z,16.62
2016-12-31T02:03:41.042Z,16.72
2016-12-31T02:04:21.539Z,16.72
2016-12-31T02:05:02.038Z,16.81
2016-12-31T02:05:42.557Z,16.72
2016-12-31T02:06:23.042Z,17
2016-12-31T02:07:03.543Z,16.8
2016-12-31T02:07:44.050Z,16.99
2016-12-31T02:08:24.550Z,16.99
2016-12-31T02:09:05.041Z,16.8
2016-12-31T02:09:45.537Z,16.9
2016-12-31T02:10:26.031Z,16.91
2016-12-31T02:11:06.508Z,16.9
2016-12-31T02:11:46.998Z,16.71
2016-12-31T02:12:27.488Z,16.81
2016-12-31T02:13:07.978Z,16.72
2016-12-31T02:13:48.462Z,16.81
2016-12-31T02:14:28.957Z,16.91
2016-12-31T02:15:09.448Z,16.8
2016-12-31T02:15:49.931Z,16.81
2016-12-31T02:16:30.426Z,16.9
2016-12-31T02:17:10.918Z,16.91
2016-12-31T02:17:51.407Z,17
2016-12-31T02:18:31.907Z,16.9
2016-12-31T02:19:12.396Z,16.99
2016-12-31T02:19:52.888Z,17
2016-12-31T02:20:33.376Z,16.99
2016-12-31T02:21:13.872Z,16.81
2016-12-31T02:21:54.355Z,16.81
2016-12-31T02:22:34.842Z,16.8
2016-12-31T02:23:15.334Z,16.8
2016-12-31T02:23:55.821Z,16.81
2016-12-31T02:24:36.339Z,16.8
2016-12-31T02:25:16.822Z,16.9
2016-12-31T02:25:57.315Z,16.9
2016-12-31T02:26:37.798Z,16.8
2016-12-31T02:27:18.283Z,16.8
2016-12-31T02:27:58.776Z,16.9
2016-12-31T02:28:39.266Z,16.9
2016-12-31T02:29:19.760Z,16.9
2016-12-31T02:30:00.243Z,16.91
2016-12-31T02:30:40.731Z,16.71
2016-12-31T02:31:21.225Z,16.91
2016-12-31T02:32:01.711Z,17.09
2016-12-31T02:32:42.763Z,16.9
2016-12-31T02:33:23.253Z,16.9
2016-12-31T02:34:03.745Z,16.8
2016-12-31T02:34:44.238Z,16.9
2016-12-31T02:35:24.731Z,16.99
2016-12-31T02:36:05.221Z,16.8
2016-12-31T02:36:45.719Z,16.8
2016-12-31T02:37:26.216Z,16.8
2016-12-31T02:38:07.025Z,16.99
2016-12-31T02:38:47.519Z,16.71
2016-12-31T02:39:28.006Z,16.9
2016-12-31T02:40:08.502Z,16.9
2016-12-31T02:40:48.998Z,16.61
2016-12-31T02:41:29.495Z,16.9
2016-12-31T02:42:09.996Z,16.9
2016-12-31T02:42:50.501Z,16.91
2016-12-31T02:43:30.988Z,16.99
2016-12-31T02:44:11.479Z,16.9
2016-12-31T02:44:51.970Z,16.99
2016-12-31T02:45:32.462Z,16.9
2016-12-31T02:46:12.969Z,16.81
2016-12-31T02:46:53.486Z,16.9
2016-12-31T02:47:33.969Z,16.9
2016-12-31T02:48:14.459Z,16.9
2016-12-31T02:48:54.964Z,16.9
2016-12-31T02:49:35.459Z,17
2016-12-31T02:50:15.951Z,17.09
2016-12-31T02:50:56.442Z,16.9
2016-12-31T02:51:36.930Z,16.9
2016-12-31T02:52:17.414Z,16.99
2016-12-31T02:52:57.902Z,16.8
2016-12-31T02:53:38.384Z,16.9
2016-12-31T02:54:18.879Z,17.09
2016-12-31T02:54:59.379Z,16.99
2016-12-31T02:55:39.866Z,16.9
2016-12-31T02:56:20.365Z,16.99
2016-12-31T02:57:00.859Z,17.09
2016-12-31T02:57:41.370Z,16.8
2016-12-31T02:58:21.854Z,16.99
2016-12-31T02:59:02.364Z,16.99
2016-12-31T02:59:42.858Z,16.99
2016-12-31T03:00:23.367Z,17
2016-12-31T03:01:03.852Z,16.99
2016-12-31T03:01:44.345Z,16.9
2016-12-31T03:02:24.830Z,16.9
2016-12-31T03:03:05.325Z,16.9
2016-12-31T03:03:45.820Z,16.9
2016-12-31T03:04:26.301Z,16.9
2016-12-31T03:05:06.805Z,16.9
2016-12-31T03:05:47.296Z,16.9
2016-12-31T03:06:27.791Z,16.9
2016-12-31T03:07:08.294Z,16.9
2016-12-31T03:07:48.802Z,16.99
2016-12-31T03:08:29.599Z,16.91
2016-12-31T03:09:10.004Z,16.99
2016-12-31T03:09:50.499Z,16.99
2016-12-31T03:10:31.009Z,16.99
2016-12-31T03:12:43.834Z,16.9
2016-12-31T03:13:24.309Z,16.99
2016-12-31T03:14:04.931Z,16.9
2016-12-31T03:14:45.412Z,16.9
2016-12-31T03:15:25.907Z,16.9
2016-12-31T03:16:06.409Z,16.91
2016-12-31T03:16:46.919Z,16.9
2016-12-31T03:17:27.409Z,16.9
2016-12-31T03:18:07.900Z,16.9
2016-12-31T03:18:48.383Z,16.99
2016-12-31T03:19:28.869Z,16.9
2016-12-31T03:20:09.501Z,16.99
2016-12-31T03:20:49.989Z,16.99
2016-12-31T03:21:30.476Z,16.99
2016-12-31T03:22:10.957Z,16.99
2016-12-31T03:22:51.449Z,16.99
2016-12-31T03:23:31.946Z,16.99
2016-12-31T03:24:12.427Z,16.8
2016-12-31T03:24:52.914Z,16.8
2016-12-31T03:25:33.399Z,16.99
2016-12-31T03:26:13.894Z,16.91
2016-12-31T03:26:54.397Z,16.81
2016-12-31T03:27:34.907Z,16.9
2016-12-31T03:28:15.398Z,17
2016-12-31T03:28:55.894Z,16.9
2016-12-31T03:29:36.394Z,16.8
2016-12-31T03:30:16.890Z,16.8
2016-12-31T03:30:57.374Z,16.8
2016-12-31T03:31:37.871Z,16.9
2016-12-31T03:32:18.370Z,16.8
2016-12-31T03:32:58.863Z,16.8
2016-12-31T03:33:39.357Z,16.71
2016-12-31T03:34:19.840Z,16.9
2016-12-31T03:35:00.332Z,16.8
2016-12-31T03:35:40.826Z,16.8
2016-12-31T03:36:21.316Z,16.8
2016-12-31T03:37:01.802Z,16.8
2016-12-31T03:37:42.288Z,16.71
2016-12-31T03:38:22.783Z,16.8
2016-12-31T03:39:03.533Z,16.8
2016-12-31T03:39:44.033Z,16.8
2016-12-31T03:40:24.520Z,16.71
2016-12-31T03:41:05.014Z,16.71
2016-12-31T03:41:45.502Z,16.81
2016-12-31T03:42:25.997Z,16.9
2016-12-31T03:43:06.486Z,16.8
2016-12-31T03:43:46.980Z,16.71
2016-12-31T03:44:27.565Z,16.71
2016-12-31T03:45:08.063Z,16.8
2016-12-31T03:45:48.548Z,16.8
2016-12-31T03:46:29.034Z,16.8
2016-12-31T03:47:09.526Z,16.8
2016-12-31T03:47:50.010Z,16.99
2016-12-31T03:48:30.497Z,16.9
2016-12-31T03:49:10.988Z,16.8
2016-12-31T03:49:51.480Z,16.71
2016-12-31T03:50:31.972Z,16.9
2016-12-31T03:51:12.457Z,16.8
2016-12-31T03:51:52.953Z,16.99
2016-12-31T03:52:33.443Z,16.99
2016-12-31T03:53:13.928Z,16.99
2016-12-31T03:53:54.441Z,16.9
2016-12-31T03:54:34.930Z,16.9
2016-12-31T03:55:15.433Z,17.09
2016-12-31T03:55:55.923Z,17.09
2016-12-31T03:56:36.415Z,17.38
2016-12-31T03:57:16.900Z,17.19
2016-12-31T03:57:57.393Z,17.19
2016-12-31T03:58:37.886Z,17.19
2016-12-31T03:59:18.370Z,17.19
2016-12-31T03:59:58.885Z,17.29
2016-12-31T04:00:39.371Z,17.38
2016-12-31T04:01:19.864Z,17.29
2016-12-31T04:02:00.358Z,17.19
2016-12-31T04:02:40.839Z,17.09
2016-12-31T04:03:21.336Z,17.29
2016-12-31T04:04:01.817Z,17.29
2016-12-31T04:04:42.319Z,17.19
2016-12-31T04:05:22.811Z,17.19
2016-12-31T04:06:03.322Z,17.19
2016-12-31T04:06:43.813Z,17.09
2016-12-31T04:07:24.305Z,16.99
2016-12-31T04:08:04.791Z,16.99
2016-12-31T04:08:45.268Z,17.09
2016-12-31T04:09:26.077Z,17.19
2016-12-31T04:10:06.433Z,17.19
2016-12-31T04:10:46.916Z,17.19
2016-12-31T04:11:27.419Z,17.19
2016-12-31T04:12:07.917Z,17.09
2016-12-31T04:12:48.411Z,17.19
2016-12-31T04:13:28.904Z,17.19
2016-12-31T04:14:09.421Z,17.19
2016-12-31T04:14:49.911Z,17.09
2016-12-31T04:15:30.419Z,17.09
2016-12-31T04:16:10.907Z,17.19
2016-12-31T04:16:51.402Z,17.09
2016-12-31T04:17:31.903Z,17.09
2016-12-31T04:18:12.417Z,16.99
2016-12-31T04:18:52.908Z,17.19
2016-12-31T04:19:33.399Z,17.19
2016-12-31T04:20:13.886Z,17.09
2016-12-31T04:20:54.382Z,17.09
2016-12-31T04:21:34.868Z,16.99
2016-12-31T04:22:15.354Z,17.09
2016-12-31T04:22:55.862Z,17.19
2016-12-31T04:23:36.351Z,17.19
2016-12-31T04:24:16.843Z,16.99
2016-12-31T04:24:57.348Z,17.09
2016-12-31T04:25:37.843Z,17.19
2016-12-31T04:26:18.324Z,16.99
2016-12-31T04:26:58.816Z,17.09
2016-12-31T04:27:39.314Z,17.19
2016-12-31T04:28:19.799Z,17.19
2016-12-31T04:29:00.301Z,17.09
2016-12-31T04:29:40.790Z,17.09
2016-12-31T04:30:21.284Z,16.99
2016-12-31T04:31:01.786Z,16.99
2016-12-31T04:31:42.269Z,17.09
2016-12-31T04:32:22.756Z,17.09
2016-12-31T04:33:03.239Z,16.9
2016-12-31T04:33:43.721Z,16.99
2016-12-31T04:34:24.211Z,17.09
2016-12-31T04:35:04.703Z,16.99
2016-12-31T04:35:45.194Z,16.99
2016-12-31T04:36:25.684Z,16.99
2016-12-31T04:37:06.204Z,17.19
2016-12-31T04:37:46.683Z,16.99
2016-12-31T04:38:27.175Z,17.09
2016-12-31T04:39:07.665Z,17.09
2016-12-31T04:39:48.154Z,16.99
2016-12-31T04:40:28.644Z,16.99
2016-12-31T04:41:09.126Z,17.09
2016-12-31T04:41:49.622Z,17.09
2016-12-31T04:42:30.115Z,17.09
2016-12-31T04:43:10.602Z,16.99
2016-12-31T04:43:51.088Z,17.09
2016-12-31T04:44:31.582Z,17.19
2016-12-31T04:45:12.078Z,16.99
2016-12-31T04:45:52.570Z,17.09
2016-12-31T04:46:33.084Z,17.19
2016-12-31T04:47:13.570Z,17.09
2016-12-31T04:47:54.063Z,17.19
2016-12-31T04:48:34.560Z,17.19
2016-12-31T04:49:15.049Z,16.99
2016-12-31T04:49:55.535Z,17.09
2016-12-31T04:50:36.016Z,17.09
2016-12-31T04:51:16.507Z,16.99
2016-12-31T04:51:56.992Z,17.09
2016-12-31T04:52:37.501Z,16.99
2016-12-31T04:53:17.999Z,17.09
2016-12-31T04:53:58.491Z,17.09
2016-12-31T04:54:38.983Z,17.19
2016-12-31T04:55:19.479Z,17.19
2016-12-31T04:55:59.969Z,17.09
2016-12-31T04:56:40.457Z,16.99
2016-12-31T04:57:20.964Z,17.09
2016-12-31T04:58:01.456Z,17.09
2016-12-31T04:58:41.950Z,16.99
2016-12-31T04:59:22.433Z,16.99
2016-12-31T05:00:02.933Z,16.99
2016-12-31T05:00:43.695Z,17.09
2016-12-31T05:01:24.187Z,16.99
2016-12-31T05:02:04.688Z,17.09
2016-12-31T05:02:45.167Z,16.99
2016-12-31T05:03:25.655Z,17.19
2016-12-31T05:04:06.148Z,16.99
2016-12-31T05:04:46.631Z,17.09
2016-12-31T05:05:27.132Z,16.99
2016-12-31T05:06:07.621Z,16.99
2016-12-31T05:06:48.101Z,16.99
2016-12-31T05:07:28.596Z,16.9
2016-12-31T05:08:09.090Z,17.09
2016-12-31T05:08:49.580Z,17.09
2016-12-31T05:09:30.060Z,17.09
2016-12-31T05:10:10.549Z,17.09
2016-12-31T05:10:51.042Z,17.09
2016-12-31T05:11:31.535Z,17.19
2016-12-31T05:12:12.023Z,17.09
2016-12-31T05:12:52.506Z,17.09
2016-12-31T05:13:32.991Z,16.99
2016-12-31T05:14:13.487Z,16.99
2016-12-31T05:14:53.969Z,16.99
2016-12-31T05:15:34.464Z,16.99
2016-12-31T05:16:14.965Z,16.9
2016-12-31T05:16:55.456Z,16.99
2016-12-31T05:17:35.950Z,16.9
2016-12-31T05:18:16.436Z,17.09
2016-12-31T05:18:56.933Z,16.99
2016-12-31T05:19:37.434Z,16.99
2016-12-31T05:20:17.932Z,16.99
2016-12-31T05:20:58.408Z,17.09
2016-12-31T05:21:38.901Z,17.09
2016-12-31T05:22:19.395Z,16.99
2016-12-31T05:22:59.882Z,16.99
2016-12-31T05:23:40.374Z,16.99
2016-12-31T05:24:20.876Z,16.9
2016-12-31T05:25:01.390Z,16.99
2016-12-31T05:25:42.125Z,16.9
2016-12-31T05:26:22.613Z,16.99
2016-12-31T05:27:03.092Z,16.9
2016-12-31T05:27:43.594Z,16.99
2016-12-31T05:28:24.085Z,16.9
2016-12-31T05:29:04.575Z,16.99
2016-12-31T05:29:45.070Z,16.99
2016-12-31T05:30:25.558Z,16.99
2016-12-31T05:31:06.041Z,16.99
2016-12-31T05:31:46.529Z,16.99
2016-12-31T05:32:27.024Z,16.9
2016-12-31T05:33:07.519Z,16.9
2016-12-31T05:33:48.038Z,16.99
2016-12-31T05:34:28.524Z,16.99
2016-12-31T05:35:09.021Z,16.99
2016-12-31T05:35:49.519Z,16.8
2016-12-31T05:36:30.038Z,16.9
2016-12-31T05:37:10.523Z,16.9
2016-12-31T05:37:51.033Z,16.9
2016-12-31T05:38:31.519Z,16.9
2016-12-31T05:39:12.009Z,16.9
2016-12-31T05:39:52.494Z,17.09
2016-12-31T05:40:32.974Z,16.9
2016-12-31T05:41:13.485Z,16.99
2016-12-31T05:41:53.967Z,16.9
2016-12-31T05:42:34.457Z,16.99
2016-12-31T05:43:14.963Z,16.9
2016-12-31T05:43:55.459Z,16.99
2016-12-31T05:44:35.952Z,17.09
2016-12-31T05:45:16.439Z,17.09
2016-12-31T05:45:56.926Z,17.38
2016-12-31T05:46:37.411Z,17.09
2016-12-31T05:47:17.897Z,17.09
2016-12-31T05:47:58.382Z,17.09
2016-12-31T05:48:38.858Z,16.8
2016-12-31T05:49:19.349Z,16.9
2016-12-31T05:49:59.845Z,17.57
2016-12-31T05:50:40.328Z,17.57
2016-12-31T05:51:20.851Z,17.38
2016-12-31T05:52:01.333Z,17.47
2016-12-31T05:52:41.824Z,16.9
2016-12-31T05:53:22.333Z,16.8
2016-12-31T05:54:02.824Z,17.47
2016-12-31T05:54:43.312Z,16.99
2016-12-31T05:55:23.804Z,17.09
2016-12-31T05:56:04.294Z,16.9
2016-12-31T05:56:44.790Z,17.09
2016-12-31T05:57:25.274Z,17.09
2016-12-31T05:58:05.770Z,17.29
2016-12-31T05:58:46.262Z,17.09
2016-12-31T05:59:26.744Z,17.19
2016-12-31T06:00:07.236Z,16.9
2016-12-31T06:00:47.728Z,17.09
2016-12-31T06:01:28.219Z,17.38
2016-12-31T06:02:08.710Z,17.19
2016-12-31T06:02:49.189Z,17.29
2016-12-31T06:03:29.686Z,17.47
2016-12-31T06:04:10.182Z,17.19
2016-12-31T06:04:50.692Z,17.47
2016-12-31T06:05:31.183Z,17.29
2016-12-31T06:06:11.705Z,17.29
2016-12-31T06:06:52.189Z,17.38
2016-12-31T06:07:32.697Z,17.47
2016-12-31T06:08:13.182Z,17.09
2016-12-31T06:08:53.698Z,17.38
2016-12-31T06:09:34.193Z,17.38
2016-12-31T06:10:14.689Z,17.19
2016-12-31T06:10:55.177Z,17.19
2016-12-31T06:11:35.677Z,17.09
2016-12-31T06:12:16.174Z,17.09
2016-12-31T06:12:56.671Z,17.19
2016-12-31T06:13:37.154Z,16.99
2016-12-31T06:14:17.629Z,17.09
2016-12-31T06:14:58.132Z,17.09
2016-12-31T06:15:38.623Z,17.09
2016-12-31T06:16:19.115Z,17.09
2016-12-31T06:16:59.614Z,17.09
2016-12-31T06:17:40.092Z,17.09
2016-12-31T06:18:20.596Z,17.09
2016-12-31T06:19:01.087Z,17.19
2016-12-31T06:19:41.579Z,17.29
2016-12-31T06:20:22.069Z,17.29
2016-12-31T06:21:02.561Z,17.29
2016-12-31T06:21:43.044Z,17.29
2016-12-31T06:22:23.536Z,17.29
2016-12-31T06:23:04.042Z,17.29
2016-12-31T06:23:44.536Z,17.29
2016-12-31T06:24:25.038Z,17.38
2016-12-31T06:25:05.520Z,17.38
2016-12-31T06:25:46.019Z,17.19
2016-12-31T06:26:26.508Z,17.38
2016-12-31T06:27:07.909Z,17.38
2016-12-31T06:27:47.483Z,17.38
2016-12-31T06:28:27.976Z,17.29
2016-12-31T06:29:08.470Z,17.19
2016-12-31T06:29:48.959Z,17.47
2016-12-31T06:30:29.450Z,17.38
2016-12-31T06:31:09.942Z,17.38
2016-12-31T06:31:50.418Z,17.19
2016-12-31T06:32:30.912Z,17.38
2016-12-31T06:33:11.402Z,17.19
2016-12-31T06:33:51.899Z,17.47
2016-12-31T06:34:32.395Z,17.29
2016-12-31T06:35:12.916Z,17.29
2016-12-31T06:35:53.403Z,17.57
2016-12-31T06:36:33.893Z,17.38
2016-12-31T06:37:14.374Z,17.19
2016-12-31T06:37:54.868Z,17.47
2016-12-31T06:38:35.364Z,17.67
2016-12-31T06:39:15.847Z,17.67
2016-12-31T06:39:56.357Z,17.76
2016-12-31T06:40:36.842Z,17.76
2016-12-31T06:41:17.341Z,17.76
2016-12-31T06:41:57.842Z,17.57
2016-12-31T06:42:38.336Z,17.57
2016-12-31T06:43:18.818Z,17.47
2016-12-31T06:43:59.308Z,17.57
2016-12-31T06:44:39.800Z,17.57
2016-12-31T06:45:20.294Z,17.47
2016-12-31T06:46:00.808Z,17.57
2016-12-31T06:46:41.289Z,17.96
2016-12-31T06:47:21.786Z,17.57
2016-12-31T06:48:02.278Z,17.57
2016-12-31T06:48:42.795Z,17.57
2016-12-31T06:49:23.281Z,17.67
2016-12-31T06:50:03.782Z,17.67
2016-12-31T06:50:44.278Z,17.67
2016-12-31T06:51:24.848Z,17.76
2016-12-31T06:52:05.342Z,17.96
2016-12-31T06:52:45.832Z,17.67
2016-12-31T06:53:26.326Z,17.76
2016-12-31T06:54:06.809Z,17.76
2016-12-31T06:54:47.296Z,17.76
2016-12-31T06:55:27.806Z,17.86
2016-12-31T06:56:08.286Z,17.86
2016-12-31T06:56:48.786Z,17.76
2016-12-31T06:57:29.643Z,17.76
2016-12-31T06:58:10.134Z,18.15
2016-12-31T06:58:50.628Z,17.76
2016-12-31T06:59:31.113Z,17.96
2016-12-31T07:00:11.586Z,18.05
2016-12-31T07:00:52.077Z,18.05
2016-12-31T07:01:32.576Z,17.76
2016-12-31T07:02:13.047Z,18.05
2016-12-31T07:02:53.537Z,18.05
2016-12-31T07:03:34.027Z,18.05
2016-12-31T07:04:14.520Z,18.15
2016-12-31T07:04:55.028Z,17.86
2016-12-31T07:05:35.520Z,17.86
2016-12-31T07:06:16.030Z,17.86
2016-12-31T07:06:56.525Z,17.96
2016-12-31T07:07:37.014Z,17.86
2016-12-31T07:08:17.506Z,17.96
2016-12-31T07:08:57.988Z,17.86
2016-12-31T07:09:38.471Z,17.86
2016-12-31T07:10:18.979Z,18.05
2016-12-31T07:10:59.469Z,18.15
2016-12-31T07:11:39.981Z,17.96
2016-12-31T07:12:20.471Z,17.86
2016-12-31T07:13:00.978Z,17.96
2016-12-31T07:13:41.467Z,17.96
2016-12-31T07:14:21.985Z,18.05
2016-12-31T07:15:02.475Z,17.86
2016-12-31T07:15:42.974Z,18.15
2016-12-31T07:16:23.463Z,18.05
2016-12-31T07:17:03.973Z,18.05
2016-12-31T07:17:44.463Z,18.05
2016-12-31T07:18:24.970Z,18.05
2016-12-31T07:19:05.462Z,18.15
2016-12-31T07:19:45.971Z,18.05
2016-12-31T07:20:26.461Z,18.05
2016-12-31T07:21:06.959Z,18.15
2016-12-31T07:21:47.476Z,18.15
2016-12-31T07:22:28.241Z,18.24
2016-12-31T07:23:08.739Z,18.05
2016-12-31T07:23:49.227Z,18.15
2016-12-31T07:24:29.723Z,18.05
2016-12-31T07:25:10.213Z,18.15
2016-12-31T07:25:50.722Z,18.15
2016-12-31T07:26:31.215Z,17.96
2016-12-31T07:27:11.724Z,17.96
2016-12-31T07:27:52.214Z,17.96
2016-12-31T07:28:32.721Z,18.05
2016-12-31T07:29:13.207Z,18.05
2016-12-31T07:29:53.719Z,17.96
2016-12-31T07:30:34.208Z,17.96
2016-12-31T07:31:14.707Z,18.05
2016-12-31T07:31:55.206Z,17.86
2016-12-31T07:32:35.707Z,17.96
2016-12-31T07:33:16.206Z,17.96
2016-12-31T07:33:56.704Z,18.15
2016-12-31T07:34:37.207Z,18.05
2016-12-31T07:35:17.710Z,18.15
2016-12-31T07:35:58.208Z,18.15
2016-12-31T07:36:38.704Z,18.05
2016-12-31T07:37:19.193Z,18.34
2016-12-31T07:37:59.663Z,18.34
2016-12-31T07:38:40.166Z,18.34
2016-12-31T07:39:20.653Z,18.24
2016-12-31T07:40:01.162Z,18.24
2016-12-31T07:40:41.655Z,18.15
2016-12-31T07:41:22.144Z,18.15
2016-12-31T07:42:02.629Z,18.05
2016-12-31T07:42:43.126Z,18.05
2016-12-31T07:43:23.627Z,18.15
2016-12-31T07:44:04.099Z,18.05
2016-12-31T07:44:44.592Z,18.15
2016-12-31T07:45:25.075Z,18.15
2016-12-31T07:46:05.573Z,18.15
2016-12-31T07:46:46.063Z,17.96
2016-12-31T07:47:26.550Z,18.05
2016-12-31T07:48:07.051Z,18.05
2016-12-31T07:48:47.543Z,18.15
2016-12-31T07:49:28.036Z,18.34
2016-12-31T07:50:08.545Z,18.15
2016-12-31T07:50:49.033Z,18.34
2016-12-31T07:51:29.541Z,18.44
2016-12-31T07:52:10.069Z,18.15
2016-12-31T07:52:50.561Z,18.34
2016-12-31T07:53:31.049Z,18.34
2016-12-31T07:54:11.541Z,18.44
2016-12-31T07:54:52.034Z,18.24
2016-12-31T07:55:32.520Z,18.34
2016-12-31T07:56:13.002Z,18.34
2016-12-31T07:56:53.502Z,18.34
2016-12-31T07:57:33.987Z,18.24
2016-12-31T07:58:14.499Z,18.44
2016-12-31T07:58:54.991Z,18.63
2016-12-31T07:59:35.491Z,18.44
2016-12-31T08:00:15.981Z,18.44
2016-12-31T08:00:56.475Z,18.34
2016-12-31T08:01:36.971Z,18.44
2016-12-31T08:02:17.449Z,18.44
2016-12-31T08:02:57.932Z,18.44
2016-12-31T08:03:38.427Z,18.44
2016-12-31T08:04:18.937Z,18.53
2016-12-31T08:04:59.573Z,18.53
2016-12-31T08:05:40.050Z,18.53
2016-12-31T08:06:20.532Z,18.53
2016-12-31T08:07:01.036Z,18.53
2016-12-31T08:07:41.526Z,18.44
2016-12-31T08:08:22.038Z,18.53
2016-12-31T08:09:02.592Z,18.63
2016-12-31T08:09:43.077Z,18.63
2016-12-31T08:10:23.570Z,18.53
2016-12-31T08:11:04.089Z,18.44
2016-12-31T08:11:44.585Z,18.63
2016-12-31T08:12:25.072Z,18.63
2016-12-31T08:13:05.572Z,18.63
2016-12-31T08:13:46.414Z,18.53
2016-12-31T08:14:26.903Z,18.73
2016-12-31T08:15:07.391Z,18.63
2016-12-31T08:15:47.889Z,18.73
2016-12-31T08:16:28.381Z,18.53
2016-12-31T08:17:08.877Z,18.53
2016-12-31T08:17:49.399Z,18.63
2016-12-31T08:18:29.907Z,18.63
2016-12-31T08:19:10.403Z,18.73
2016-12-31T08:19:50.898Z,18.73
2016-12-31T08:20:31.379Z,18.73
2016-12-31T08:21:11.871Z,18.73
2016-12-31T08:21:52.364Z,18.73
2016-12-31T08:22:32.855Z,18.53
2016-12-31T08:23:13.344Z,18.73
2016-12-31T08:23:53.842Z,18.91
2016-12-31T08:24:34.348Z,18.82
2016-12-31T08:25:14.838Z,18.73
2016-12-31T08:25:55.329Z,18.91
2016-12-31T08:26:35.821Z,18.63
2016-12-31T08:27:16.313Z,18.73
2016-12-31T08:27:56.797Z,18.91
2016-12-31T08:28:37.290Z,18.53
2016-12-31T08:29:17.793Z,18.63
2016-12-31T08:29:58.277Z,18.73
2016-12-31T08:30:38.774Z,18.63
2016-12-31T08:31:19.267Z,18.63
2016-12-31T08:31:59.759Z,18.63
2016-12-31T08:32:40.253Z,18.63
2016-12-31T08:33:20.741Z,18.63
2016-12-31T08:34:01.237Z,18.63
2016-12-31T08:34:41.715Z,18.63
2016-12-31T08:35:22.219Z,18.63
2016-12-31T08:36:02.710Z,18.73
2016-12-31T08:36:43.221Z,18.63
2016-12-31T08:37:23.718Z,18.53
2016-12-31T08:38:04.201Z,18.73
2016-12-31T08:38:44.929Z,18.63
2016-12-31T08:39:25.427Z,18.63
2016-12-31T08:40:05.914Z,18.53
2016-12-31T08:40:46.401Z,18.73
2016-12-31T08:41:26.900Z,18.63
2016-12-31T08:42:07.385Z,18.63
2016-12-31T08:42:47.881Z,18.53
2016-12-31T08:43:28.363Z,18.73
2016-12-31T08:44:08.849Z,18.73
2016-12-31T08:44:49.335Z,18.63
2016-12-31T08:45:29.832Z,18.63
2016-12-31T08:46:10.327Z,18.53